Terminal Aerodrome Forecast
Issued by NWS

Home | Current Version | Previous Version | Text Only | Print | Product List | Glossary On
Versions: 1 2 3 4 5 6 7 8 9 10 11 12 13 14 15 16 17 18 19 20 21 22 23
000
FTUS41 KBGM 061155 CCA
TAFRME
TAF COR
KRME 061155Z 0612/0712 00000KT P6SM BKN050
      TEMPO 0612/0615 1SM BR BKN017
     FM061500 11004KT P6SM SCT070
     FM070000 11006KT P6SM -RASN BKN060 OVC150
     FM070300 11006KT 3SM -SN SCT025 OVC035
      TEMPO 0703/0707 1SM -SN BR BKN025
     FM070700 12007KT 3SM -RASN OVC011=

USA.gov is the U.S. government's official web portal to all federal, state and local government web resources and services.